Tuesday, February 20, 2018, 3:36 PM GMT
Back to Local

CWKG, Kejimkujik 1, N. S.

Location: , , Canada Lat: 44.433
Local Time: 3:36 PM GMT (15:36 GMT) Lon: -65.2
Time Zone: GMT Elev: 416 ft

Show me the last for .
Show Decoded

2018-02-20 15:00 METAR CWKG 201500Z AUTO 05003KT 06/05 RMK AO1 3PAST HR 0003 SLP255 P0001
                 T00600053 50008 =
2018-02-20 14:00 METAR CWKG 201400Z AUTO 02001KT 06/06 RMK AO1 3PAST HR 3006 SLP256 P0001
                 T00620055 50005 =
2018-02-20 13:00 METAR CWKG 201300Z AUTO 34001KT 06/06 RMK AO1 2PAST HR 2004 SLP253 P0001
                 T00620055 50002 =
2018-02-20 12:00 METAR CWKG 201200Z AUTO 27002KT 06/05 RMK AO1 3002 SLP252 T00590052 50026 =
2018-02-20 11:00 METAR CWKG 201100Z AUTO 28003KT 06/05 RMK AO1 2PAST HR 5002 SLP250 P0001
                 T00590052 50026 =
2018-02-20 10:00 METAR CWKG 201000Z AUTO 25003KT 05/05 RMK AO1 3PAST HR 6010 SLP249 P0001
                 T00540047 50024 =
2018-02-20 09:00 METAR CWKG 200900Z AUTO 24004KT 05/04 RMK AO1 5PAST HR 6018 SLP250 P0002
                 T00510044 50022 =
2018-02-20 08:00 METAR CWKG 200800Z AUTO 25004KT 05/04 RMK AO1 7PAST HR 6024 SLP252 P0003
                 T00480041 50017 =
2018-02-20 07:00 METAR CWKG 200700Z AUTO 23006KT 05/04 RMK AO1 0PAST HR 8020 SLP259 P0004
                 T00470040 50010 =
2018-02-20 06:00 METAR CWKG 200600Z AUTO 23007G15KT 05/04 RMK AO1 9PAST HR 8017 SLP268 P0004
                 T00470040 50017 =
2018-02-20 05:00 METAR CWKG 200500Z AUTO 23004KT 03/02 RMK AO1 9PAST HR 6019 SLP277 P0004
                 T00310023 50009 =
2018-02-20 04:00 METAR CWKG 200400Z AUTO 21005KT 02/01 RMK AO1 SLP280 T00220011 56023 =
2018-02-20 03:00 METAR CWKG 200300Z AUTO 19004KT 02/M00 RMK AO1 SLP286 T00171003 58022 =
2018-02-20 02:00 METAR CWKG 200200Z AUTO 20004KT 01/M00 RMK AO1 SLP297 T00131002 56021 =
2018-02-20 01:00 METAR CWKG 200100Z AUTO 21005KT 01/M01 RMK AO1 SLP304 T00091007 58016 =
2018-02-20 00:00 METAR CWKG 200000Z AUTO 20005KT M00/M01 RMK AO1 SLP310 T10041013 58013 =
2018-02-19 23:00 METAR CWKG 192300Z AUTO 21006KT 01/M02 RMK AO1 SLP319 T00061016 56013 =
2018-02-19 22:00 METAR CWKG 192200Z AUTO 22007KT 01/M02 RMK AO1 PK WND 18017/2109 SLP321
                 T00131018 56019 =
2018-02-19 21:00 METAR CWKG 192100Z AUTO 22009G18KT 02/M02 RMK AO1 PK WND 23018/2043 SLP323
                 T00231020 56027 =
2018-02-19 20:00 METAR CWKG 192000Z AUTO 22007KT 03/M01 RMK AO1 PK WND 21018/1940 SLP332
                 T00271012 56029 =
2018-02-19 19:00 METAR CWKG 191900Z AUTO 22007G15KT 03/M01 RMK AO1 SLP340 T00311006 58025 =
2018-02-19 18:00 METAR CWKG 191800Z AUTO 23006KT 03/M01 RMK AO1 SLP350 T00301009 58015 =
2018-02-19 17:00 METAR CWKG 191700Z AUTO 23006KT 02/M02 RMK AO1 SOG 00 8005 SLP361 T00241015 =
2018-02-19 16:00 METAR CWKG 191600Z AUTO 22007KT 03/M01 RMK AO1 SOG 00 1006 SLP365 T00271013 =

Support USWX by starting your Amazon purchase here.